Time;durP1;ratioP1;P1;durP2;ratioP2;P2;SDS_P1;SDS_P2;PMS_P1;PMS_P2;Temp;Humidity;BMP_temperature;BMP_pressure;BME280_temperature;BME280_humidity;BME280_pressure;Samples;Min_cycle;Max_cycle;Signal;HPM_P1;HPM_P2
2022/11/16 02:32:54;;;;;;;16.54;2.44;;;;;;;18.07;100.00;101326.25;4818962;29;2141516;-90
2022/11/16 02:35:28;;;;;;;14.00;1.70;;;;;;;18.07;100.00;101323.47;4900550;29;20202;-91
2022/11/16 02:38:02;;;;;;;20.47;3.07;;;;;;;18.04;100.00;101321.16;4900791;29;20451;-91
2022/11/16 02:40:34;;;;;;;17.70;2.23;;;;;;;18.00;100.00;101308.88;4901462;29;20594;-89
2022/11/16 02:43:27;;;;;;;23.07;2.40;;;;;;;18.02;100.00;101309.47;4915832;29;20515;-90
2022/11/16 02:45:57;;;;;;;18.30;2.10;;;;;;;18.02;100.00;101313.09;4918973;29;20509;-90
2022/11/16 02:48:28;;;;;;;19.80;2.43;;;;;;;18.06;100.00;101316.25;4884899;29;20448;-90
2022/11/16 02:50:58;;;;;;;13.30;2.23;;;;;;;18.05;100.00;101320.09;4885346;29;20448;-90
2022/11/16 02:53:26;;;;;;;15.63;2.20;;;;;;;18.05;100.00;101326.47;4915369;29;20920;-90
2022/11/16 02:55:55;;;;;;;10.07;2.00;;;;;;;17.98;100.00;101305.47;4884670;29;20447;-90
2022/11/16 02:58:23;;;;;;;13.03;2.20;;;;;;;18.02;100.00;101315.00;4915691;29;20503;-90
2022/11/16 03:01:00;;;;;;;16.90;1.93;;;;;;;17.96;100.00;101305.69;4885538;29;20444;-90
2022/11/16 03:03:37;;;;;;;19.07;2.00;;;;;;;18.00;100.00;101308.88;4931090;29;20461;-90
2022/11/16 03:06:26;;;;;;;11.00;1.40;;;;;;;17.94;100.00;101305.94;4941089;28;20445;-91
2022/11/16 03:08:56;;;;;;;10.73;1.70;;;;;;;17.98;100.00;101319.31;5017594;28;20466;-91
2022/11/16 03:14:13;;;;;;;10.77;1.40;;;;;;;17.97;100.00;101342.50;5055303;28;20519;-90
2022/11/16 03:16:47;;;;;;;12.83;2.67;;;;;;;17.97;100.00;101348.03;5036009;28;20898;-90
2022/11/16 03:19:34;;;;;;;13.43;1.80;;;;;;;17.95;100.00;101357.41;5036753;28;20487;-90
2022/11/16 03:22:27;;;;;;;15.40;2.03;;;;;;;17.95;100.00;101345.50;5068820;28;20442;-90
2022/11/16 03:24:54;;;;;;;13.40;1.63;;;;;;;17.92;100.00;101321.06;4975546;28;20525;-90
2022/11/16 03:27:34;;;;;;;11.80;2.50;;;;;;;17.91;100.00;101303.63;4972280;28;20460;-90
2022/11/16 03:30:24;;;;;;;13.13;1.63;;;;;;;17.84;100.00;101300.09;4971689;28;20937;-90
2022/11/16 03:32:56;;;;;;;16.03;1.93;;;;;;;17.90;100.00;101310.22;4943888;28;20541;-90
2022/11/16 03:35:31;;;;;;;10.43;1.47;;;;;;;17.88;100.00;101304.09;4975449;28;20980;-90
2022/11/16 03:38:00;;;;;;;12.47;1.90;;;;;;;17.85;100.00;101296.25;4959649;28;20493;-91
2022/11/16 03:40:29;;;;;;;12.10;2.30;;;;;;;17.81;100.00;101286.72;4943571;28;20553;-90
2022/11/16 03:42:59;;;;;;;8.53;1.77;;;;;;;17.83;100.00;101290.09;4959249;28;20466;-90
2022/11/16 03:49:07;;;;;;;11.50;1.80;;;;;;;17.69;100.00;101291.31;4975323;28;20408;-91
2022/11/16 03:51:35;;;;;;;8.57;1.77;;;;;;;17.77;100.00;101304.81;4943426;28;20446;-90
2022/11/16 03:54:04;;;;;;;9.10;1.40;;;;;;;17.76;100.00;101297.59;4959138;28;20533;-90
2022/11/16 03:56:31;;;;;;;8.40;1.60;;;;;;;17.72;100.00;101301.91;4959460;28;20442;-91
2022/11/16 03:59:01;;;;;;;15.90;2.13;;;;;;;17.73;100.00;101314.66;4959462;28;20952;-91
2022/11/16 04:01:29;;;;;;;15.73;2.23;;;;;;;17.69;100.00;101315.34;4988066;28;20857;-90
2022/11/16 04:03:57;;;;;;;21.60;2.87;;;;;;;17.67;100.00;101311.97;5041782;28;20441;-91
2022/11/16 04:26:16;;;;;;;8.87;2.13;;;;;;;17.62;100.00;101301.53;5013483;28;20510;-89
2022/11/16 04:28:43;;;;;;;15.20;2.07;;;;;;;17.63;100.00;101303.25;4997317;28;20523;-90
2022/11/16 04:39:32;;;;;;;14.13;2.20;;;;;;;17.62;100.00;101287.72;4999514;28;20476;-89
2022/11/16 04:42:17;;;;;;;22.80;2.70;;;;;;;17.58;100.00;101289.25;4996462;28;20433;-90
2022/11/16 04:47:33;;;;;;;13.27;2.10;;;;;;;17.59;100.00;101288.16;5014558;28;20441;-90
2022/11/16 04:50:01;;;;;;;21.73;2.83;;;;;;;17.55;100.00;101276.72;5040533;28;20536;-89
2022/11/16 04:52:31;;;;;;;16.30;2.00;;;;;;;17.56;100.00;101263.75;5073190;28;20446;-90
2022/11/16 04:55:00;;;;;;;13.73;2.53;;;;;;;17.59;100.00;101279.88;5057284;28;20434;-90
2022/11/16 04:57:27;;;;;;;13.40;2.40;;;;;;;17.55;100.00;101267.56;5073248;28;20438;-90
2022/11/16 04:59:55;;;;;;;19.73;2.30;;;;;;;17.57;100.00;101284.78;5040760;28;20539;-91
2022/11/16 05:02:23;;;;;;;20.23;3.40;;;;;;;17.57;100.00;101284.78;5040217;28;20442;-90
2022/11/16 05:04:51;;;;;;;14.03;2.17;;;;;;;17.56;100.00;101291.38;5040685;28;20792;-91
2022/11/16 05:07:19;;;;;;;21.23;2.40;;;;;;;17.51;100.00;101289.28;5073403;28;20524;-91
2022/11/16 05:09:47;;;;;;;20.27;2.20;;;;;;;17.55;100.00;101295.22;5040669;28;20430;-91
2022/11/16 05:12:19;;;;;;;21.40;3.20;;;;;;;17.60;100.00;101295.41;5040812;28;20437;-91
2022/11/16 05:14:47;;;;;;;13.80;1.87;;;;;;;17.55;100.00;101270.34;5057499;28;20445;-90
2022/11/16 05:17:15;;;;;;;17.07;2.20;;;;;;;17.56;100.00;101274.81;5040584;28;20444;-91
2022/11/16 05:22:29;;;;;;;19.43;2.33;;;;;;;17.58;100.00;101283.72;5059526;28;20525;-90
2022/11/16 05:24:57;;;;;;;16.83;2.17;;;;;;;17.63;100.00;101281.13;5040297;28;20473;-90
2022/11/16 05:27:26;;;;;;;17.67;3.10;;;;;;;17.63;100.00;101270.06;5056976;28;20425;-90
2022/11/16 05:29:54;;;;;;;17.37;2.93;;;;;;;17.67;100.00;101278.78;5073057;28;20425;-90
2022/11/16 05:32:22;;;;;;;15.63;2.53;;;;;;;17.63;100.00;101275.59;5056997;28;20518;-90
2022/11/16 05:34:50;;;;;;;33.17;3.63;;;;;;;17.67;100.00;101276.88;5056288;28;20481;-89
2022/11/16 05:37:19;;;;;;;20.73;3.40;;;;;;;17.66;100.00;101283.47;5040011;28;20544;-90
2022/11/16 05:39:47;;;;;;;17.43;2.67;;;;;;;17.70;100.00;101284.72;5040726;28;20487;-90
2022/11/16 05:42:17;;;;;;;16.53;2.57;;;;;;;17.72;100.00;101293.59;5040008;28;20430;-90
2022/11/16 05:44:46;;;;;;;19.47;2.27;;;;;;;17.75;100.00;101289.53;5072450;28;20936;-90
2022/11/16 05:47:15;;;;;;;16.70;3.90;;;;;;;17.74;100.00;101285.06;5074299;28;20429;-91
2022/11/16 05:49:45;;;;;;;13.57;3.00;;;;;;;17.75;100.00;101295.91;5072690;28;20434;-89
2022/11/16 05:52:13;;;;;;;17.40;2.20;;;;;;;17.76;100.00;101292.06;5073712;28;20452;-91
2022/11/16 05:54:43;;;;;;;17.17;2.20;;;;;;;17.76;100.00;101283.78;5071843;28;20442;-90
2022/11/16 05:57:12;;;;;;;17.93;2.93;;;;;;;17.76;100.00;101289.31;5056654;28;20515;-90
2022/11/16 05:59:42;;;;;;;16.13;2.43;;;;;;;17.75;100.00;101293.16;5056405;28;20480;-90
2022/11/16 06:02:10;;;;;;;21.43;3.33;;;;;;;17.74;100.00;101302.50;5072701;28;20444;-90
2022/11/16 06:04:40;;;;;;;11.30;2.57;;;;;;;17.75;100.00;101304.22;5039877;28;20464;-91
2022/11/16 06:07:08;;;;;;;14.63;2.80;;;;;;;17.70;100.00;101298.53;5072743;28;20936;-89
2022/11/16 06:09:36;;;;;;;17.43;2.70;;;;;;;17.76;100.00;101316.97;5056130;28;20425;-91
2022/11/16 06:12:08;;;;;;;17.87;3.07;;;;;;;17.78;100.00;101312.06;5040047;28;20456;-91
2022/11/16 06:14:36;;;;;;;18.77;2.20;;;;;;;17.76;100.00;101303.13;5056862;28;20528;-91
2022/11/16 06:17:03;;;;;;;16.90;2.57;;;;;;;17.79;100.00;101316.50;5039653;28;20450;-90
2022/11/16 06:19:31;;;;;;;13.07;3.07;;;;;;;17.81;100.00;101322.66;5056086;28;20513;-90
2022/11/16 06:22:01;;;;;;;9.17;1.93;;;;;;;17.77;100.00;101296.53;5039170;28;20810;-90
2022/11/16 06:24:31;;;;;;;15.23;2.07;;;;;;;17.85;100.00;101312.00;5055576;28;20445;-90
2022/11/16 06:26:59;;;;;;;11.53;2.10;;;;;;;17.84;100.00;101304.78;5056047;28;20438;-90
2022/11/16 06:29:29;;;;;;;13.53;2.47;;;;;;;17.83;100.00;101292.03;5055771;28;20781;-90
2022/11/16 06:31:57;;;;;;;21.67;3.63;;;;;;;17.82;100.00;101285.66;5072419;28;20447;-91
2022/11/16 08:19:26;;;;;;;14.40;1.60;;;;;;;18.23;100.00;101376.28;4711505;30;20482;-90
2022/11/16 16:35:52;;;;;;;12.53;2.30;;;;;;;20.03;nan;101223.69;5991938;22;2854234;-88
2022/11/16 16:38:31;;;;;;;15.83;2.00;;;;;;;20.09;nan;101230.22;6057958;23;20450;-88
2022/11/16 16:41:04;;;;;;;10.07;2.43;;;;;;;20.11;nan;101228.03;6101924;23;20812;-88
2022/11/16 16:43:33;;;;;;;17.30;2.43;;;;;;;20.16;nan;101240.09;6077966;23;20410;-89
2022/11/16 16:46:05;;;;;;;26.97;3.00;;;;;;;20.14;nan;101238.66;6100690;23;20425;-90
2022/11/16 16:48:34;;;;;;;18.73;2.93;;;;;;;20.12;nan;101241.66;6054920;23;20478;-89
2022/11/16 16:51:10;;;;;;;19.43;3.13;;;;;;;20.12;nan;101235.28;6057132;23;20406;-89
2022/11/16 16:53:38;;;;;;;21.70;3.50;;;;;;;20.05;nan;101238.19;6054165;23;20493;-90
2022/11/16 16:56:18;;;;;;;24.90;3.47;;;;;;;20.06;nan;101252.91;6053323;23;20464;-89
2022/11/16 16:58:46;;;;;;;29.60;3.40;;;;;;;19.96;nan;101246.06;6101295;23;20437;-89
2022/11/16 17:01:15;;;;;;;24.63;3.33;;;;;;;19.94;nan;101245.44;6053582;23;20402;-90
2022/11/16 17:03:43;;;;;;;19.13;3.40;;;;;;;19.90;nan;101254.50;6053907;23;20473;-89
2022/11/16 17:06:12;;;;;;;21.37;2.20;;;;;;;19.85;nan;101246.03;6076844;23;20418;-90
2022/11/16 17:08:41;;;;;;;19.20;2.30;;;;;;;19.84;nan;101247.97;6076962;23;20904;-88
2022/11/16 17:11:13;;;;;;;20.87;3.10;;;;;;;19.78;nan;101248.97;6076906;23;20971;-89
2022/11/16 17:13:41;;;;;;;14.33;2.20;;;;;;;19.71;nan;101250.16;6101575;23;20421;-89
2022/11/16 17:16:09;;;;;;;18.13;2.17;;;;;;;19.64;nan;101240.03;6053910;23;20406;-88
2022/11/16 17:18:36;;;;;;;21.57;3.37;;;;;;;19.64;nan;101253.06;6053405;23;20581;-88
2022/11/16 17:21:06;;;;;;;15.20;2.10;;;;;;;19.61;nan;101257.19;6053798;23;20492;-89
2022/11/16 17:23:45;;;;;;;10.10;2.23;;;;;;;19.62;nan;101263.56;6077865;23;20410;-90
2022/11/16 17:26:13;;;;;;;15.03;2.20;;;;;;;19.59;nan;101264.91;6102489;23;20402;-89
2022/11/16 17:28:45;;;;;;;15.70;1.97;;;;;;;19.51;nan;101256.06;6056079;23;20910;-90
2022/11/16 17:31:16;;;;;;;12.03;1.60;;;;;;;19.49;nan;101272.06;6079833;23;20804;-89
2022/11/16 17:33:50;;;;;;;14.93;1.90;;;;;;;19.48;nan;101282.31;6103322;23;20521;-89
2022/11/16 17:36:21;;;;;;;11.03;2.37;;;;;;;19.44;nan;101277.47;6038974;23;20441;-89
2022/11/16 17:38:50;;;;;;;14.97;1.83;;;;;;;19.41;nan;101283.53;6073495;23;20461;-89
2022/11/16 17:41:24;;;;;;;10.70;1.80;;;;;;;19.38;nan;101281.22;6050568;23;20486;-88
2022/11/16 17:43:55;;;;;;;8.17;1.60;;;;;;;19.29;nan;101281.56;6073375;23;20418;-88
2022/11/16 17:46:28;;;;;;;13.07;1.60;;;;;;;19.24;nan;101284.19;6052111;23;20905;-88
2022/11/16 17:49:05;;;;;;;7.50;1.53;;;;;;;19.16;nan;101286.47;6026578;23;20915;-89
2022/11/16 17:51:34;;;;;;;6.70;1.90;;;;;;;19.10;nan;101282.72;6072861;23;20944;-88
2022/11/16 17:54:05;;;;;;;14.63;2.30;;;;;;;19.11;nan;101286.34;6049793;23;20896;-88
2022/11/16 17:56:34;;;;;;;9.87;1.53;;;;;;;19.09;nan;101292.13;6049683;23;20585;-88
2022/11/16 17:59:02;;;;;;;17.77;2.50;;;;;;;19.07;nan;101277.66;6049795;23;20514;-88
2022/11/16 18:01:32;;;;;;;10.13;1.80;;;;;;;19.10;nan;101293.81;6024804;23;20421;-88
2022/11/16 18:04:01;;;;;;;8.60;2.97;;;;;;;19.06;nan;101289.81;6073551;23;20494;-88
2022/11/16 18:06:31;;;;;;;21.60;3.43;;;;;;;19.05;nan;101288.13;6026887;23;20411;-88
2022/11/16 18:08:59;;;;;;;17.60;4.97;;;;;;;19.02;nan;101294.16;6073635;23;20412;-89
2022/11/16 18:11:28;;;;;;;17.40;3.00;;;;;;;19.03;nan;101292.25;6026662;23;20418;-89
2022/11/16 18:13:58;;;;;;;15.27;4.70;;;;;;;18.98;nan;101291.03;6026930;23;20478;-89
2022/11/16 18:16:27;;;;;;;19.50;3.20;;;;;;;18.97;nan;101299.56;6026803;23;20494;-88
2022/11/16 18:19:07;;;;;;;11.87;2.50;;;;;;;18.97;nan;101294.03;6026347;23;20473;-88
2022/11/16 18:21:40;;;;;;;19.30;4.10;;;;;;;19.03;nan;101306.09;6026079;23;20449;-88
2022/11/16 18:24:09;;;;;;;14.83;2.40;;;;;;;18.97;nan;101288.47;6073474;23;20866;-88
2022/11/16 18:26:39;;;;;;;15.47;3.63;;;;;;;18.94;nan;101291.72;6049389;23;20414;-89
2022/11/16 18:29:14;;;;;;;23.50;8.90;;;;;;;19.02;nan;101302.47;6051249;23;20411;-89
2022/11/16 18:31:42;;;;;;;23.00;4.50;;;;;;;19.02;nan;101308.03;6051487;23;20418;-88
2022/11/16 18:34:13;;;;;;;17.40;3.00;;;;;;;18.99;nan;101300.19;6025709;23;20913;-88
2022/11/16 18:36:41;;;;;;;15.90;3.80;;;;;;;19.01;nan;101305.47;6045024;23;20441;-89
2022/11/16 18:39:09;;;;;;;19.17;4.40;;;;;;;18.99;nan;101294.63;6078512;23;20521;-88
2022/11/16 18:41:38;;;;;;;20.03;5.30;;;;;;;19.03;nan;101309.72;6077838;23;20716;-88
2022/11/16 18:44:06;;;;;;;23.30;6.00;;;;;;;18.96;nan;101297.88;6078099;23;20737;-89
2022/11/16 18:46:34;;;;;;;21.07;4.20;;;;;;;18.98;nan;101301.25;6102108;23;20919;-88
2022/11/16 18:49:19;;;;;;;21.03;4.60;;;;;;;19.01;nan;101300.78;6054108;23;20510;-88
2022/11/16 18:51:48;;;;;;;11.53;4.00;;;;;;;18.99;nan;101305.72;6014210;23;21051;-88
2022/11/16 18:54:16;;;;;;;16.90;5.03;;;;;;;18.97;nan;101311.50;6014668;23;20408;-88
2022/11/16 18:56:44;;;;;;;13.47;3.87;;;;;;;18.97;nan;101310.66;5991661;23;20967;-88
2022/11/16 18:59:19;;;;;;;16.00;4.13;;;;;;;18.95;nan;101312.81;5991490;23;20550;-88
2022/11/16 19:01:48;;;;;;;16.90;3.87;;;;;;;18.94;nan;101314.72;6016017;23;20491;-88
2022/11/16 19:04:16;;;;;;;14.47;3.63;;;;;;;18.92;nan;101308.56;6014912;23;20922;-88
2022/11/16 19:06:43;;;;;;;14.47;2.23;;;;;;;18.89;nan;101303.50;5968418;23;20479;-87
2022/11/16 19:09:13;;;;;;;6.37;1.47;;;;;;;18.91;nan;101306.03;6037454;23;20484;-87
2022/11/16 19:11:43;;;;;;;12.33;1.20;;;;;;;18.85;nan;101304.22;6013331;23;20923;-88
2022/11/16 19:14:40;;;;;;;12.17;1.60;;;;;;;18.84;nan;101308.06;6011126;23;20421;-88
2022/11/16 19:17:19;;;;;;;5.00;2.47;;;;;;;18.84;nan;101319.16;6113116;23;20414;-88
2022/11/16 19:19:49;;;;;;;6.10;2.00;;;;;;;18.70;nan;101298.25;6053821;23;20525;-88
2022/11/16 19:22:18;;;;;;;8.20;1.73;;;;;;;18.81;nan;101322.38;6101447;23;20482;-88
2022/11/16 19:24:47;;;;;;;11.30;1.60;;;;;;;18.79;nan;101324.53;6054041;23;20492;-88
2022/11/16 19:27:15;;;;;;;12.20;2.03;;;;;;;18.78;nan;101325.63;6076713;23;20399;-88
2022/11/16 19:29:43;;;;;;;9.77;1.53;;;;;;;18.76;nan;101325.00;6077699;23;20421;-88
2022/11/16 19:32:10;;;;;;;15.53;2.00;;;;;;;18.66;nan;101319.19;6053565;23;20417;-87
2022/11/16 19:34:40;;;;;;;10.90;1.70;;;;;;;18.81;nan;101334.31;6077231;23;20409;-88
2022/11/16 19:37:15;;;;;;;10.83;1.73;;;;;;;18.69;nan;101311.25;6100614;23;20441;-88
2022/11/16 19:39:46;;;;;;;13.53;2.17;;;;;;;18.80;nan;101334.53;6100385;23;20451;-88
2022/11/16 19:42:14;;;;;;;21.97;2.20;;;;;;;18.81;nan;101336.25;6101480;23;20497;-87
2022/11/16 19:44:51;;;;;;;18.83;2.50;;;;;;;18.68;nan;101317.84;6053352;23;20542;-87
2022/11/16 19:47:23;;;;;;;14.13;4.97;;;;;;;18.80;nan;101331.78;6101728;23;20493;-88
2022/11/16 19:49:52;;;;;;;18.27;4.33;;;;;;;18.74;nan;101316.94;6069436;23;20916;-87
2022/11/16 19:52:20;;;;;;;14.60;4.43;;;;;;;18.73;nan;101311.63;6124955;23;20473;-87
2022/11/16 19:54:48;;;;;;;12.53;2.73;;;;;;;18.78;nan;101317.31;6123828;23;20565;-89
2022/11/16 19:57:20;;;;;;;20.73;3.23;;;;;;;18.79;nan;101319.00;6101412;23;20542;-87
2022/11/16 19:59:51;;;;;;;13.40;2.77;;;;;;;18.73;nan;101315.25;6124283;23;20856;-87
2022/11/16 20:02:21;;;;;;;12.63;2.43;;;;;;;18.78;nan;101322.84;6099419;23;20489;-88
2022/11/16 20:05:00;;;;;;;15.27;3.00;;;;;;;18.75;nan;101329.69;6101508;23;20464;-89
2022/11/16 20:07:36;;;;;;;14.60;3.10;;;;;;;18.74;nan;101333.53;6101970;23;20495;-89
2022/11/16 20:10:05;;;;;;;13.40;3.83;;;;;;;18.68;nan;101322.53;6104136;23;20413;-89
2022/11/16 20:12:48;;;;;;;19.47;3.97;;;;;;;18.60;nan;101327.34;6103152;23;20477;-88
2022/11/16 20:15:24;;;;;;;16.07;4.00;;;;;;;18.72;nan;101330.16;6083569;23;20975;-89
2022/11/16 20:18:00;;;;;;;21.60;3.60;;;;;;;18.62;nan;101318.81;6105043;23;20501;-89
2022/11/16 20:21:04;;;;;;;17.87;3.13;;;;;;;18.72;nan;101329.31;6079527;23;20549;-89
2022/11/16 20:23:38;;;;;;;21.27;2.70;;;;;;;18.73;nan;101344.84;6103024;23;20880;-89
2022/11/16 20:29:52;;;;;;;23.90;4.93;;;;;;;18.70;nan;101353.63;6128770;23;20369;-89
2022/11/16 20:32:38;;;;;;;16.20;3.20;;;;;;;18.68;nan;101333.63;6103317;23;20481;-89
2022/11/16 20:39:31;;;;;;;13.83;2.30;;;;;;;18.71;nan;101333.16;6091051;23;20434;-89
2022/11/16 20:42:37;;;;;;;15.40;2.60;;;;;;;18.72;nan;101348.69;6050403;23;20478;-90
2022/11/16 20:45:42;;;;;;;12.40;1.50;;;;;;;18.70;nan;101353.63;6073932;23;20893;-89
2022/11/16 20:48:14;;;;;;;21.43;2.90;;;;;;;18.68;nan;101348.31;6050921;23;20415;-89
2022/11/16 20:51:04;;;;;;;8.43;2.30;;;;;;;18.68;nan;101347.47;6050167;23;20410;-89
2022/11/16 20:53:44;;;;;;;11.13;3.90;;;;;;;18.63;nan;101354.56;6050689;23;20481;-89
2022/11/16 20:56:12;;;;;;;14.60;3.10;;;;;;;18.62;nan;101352.88;6050646;23;20414;-90
2022/11/16 20:58:39;;;;;;;10.07;3.30;;;;;;;18.58;nan;101351.63;6050572;23;20435;-89
2022/11/16 21:01:17;;;;;;;8.50;2.40;;;;;;;18.61;nan;101366.94;6052790;23;20783;-89
2022/11/16 21:30:52;;;;;;;16.23;4.60;;;;;;;18.57;nan;101363.75;6100189;23;20358;-90
2022/11/16 21:33:20;;;;;;;28.70;5.40;;;;;;;18.53;nan;101365.28;6074615;23;20414;-88
2022/11/16 21:35:53;;;;;;;18.43;3.90;;;;;;;18.53;nan;101381.06;6028818;23;20418;-89
2022/11/16 21:38:26;;;;;;;27.20;4.13;;;;;;;18.38;nan;101356.53;6027304;23;20585;-89
2022/11/16 21:40:54;;;;;;;18.33;5.57;;;;;;;18.39;nan;101352.69;6073613;23;20490;-88
2022/11/16 21:43:23;;;;;;;22.17;5.90;;;;;;;18.40;nan;101353.53;6026230;23;20558;-89
2022/11/16 21:45:50;;;;;;;21.93;6.50;;;;;;;18.44;nan;101366.69;6049489;23;20414;-89
2022/11/16 21:48:20;;;;;;;19.50;5.83;;;;;;;18.37;nan;101354.00;6026417;23;20438;-88
2022/11/16 21:50:58;;;;;;;25.53;5.80;;;;;;;18.42;nan;101368.84;6049664;23;20430;-87
2022/11/16 21:53:27;;;;;;;20.60;5.27;;;;;;;18.41;nan;101366.31;6027143;23;20498;-90
2022/11/16 21:56:01;;;;;;;20.97;5.10;;;;;;;18.39;nan;101365.69;6050009;23;20961;-91
2022/11/16 21:58:29;;;;;;;15.97;4.80;;;;;;;18.30;nan;101349.38;6050051;23;20489;-92
2022/11/16 22:01:00;;;;;;;19.33;4.77;;;;;;;18.34;nan;101366.38;6027345;23;20423;-91
2022/11/16 22:03:30;;;;;;;19.77;4.10;;;;;;;18.32;nan;101356.59;6027897;23;20478;-92
2022/11/16 22:08:57;;;;;;;15.10;3.43;;;;;;;18.28;nan;101367.28;5963304;24;20489;-92
2022/11/16 22:11:35;;;;;;;17.90;4.47;;;;;;;18.26;nan;101363.94;5936820;24;20477;-92
2022/11/16 22:14:05;;;;;;;18.03;4.43;;;;;;;18.23;nan;101359.69;5982418;24;20429;-92
2022/11/16 22:16:33;;;;;;;24.33;4.70;;;;;;;18.20;nan;101356.53;5982526;24;20525;-91
2022/11/16 22:19:01;;;;;;;22.30;4.40;;;;;;;18.19;nan;101363.13;5936791;24;20502;-92
2022/11/16 22:21:31;;;;;;;17.50;5.17;;;;;;;18.19;nan;101352.06;5937582;24;20536;-92
2022/11/16 22:24:01;;;;;;;20.77;4.90;;;;;;;18.25;nan;101373.31;5937199;24;20415;-92
2022/11/16 22:26:29;;;;;;;19.73;4.03;;;;;;;18.25;nan;101362.22;5915104;24;20418;-92
2022/11/16 22:29:02;;;;;;;19.77;3.27;;;;;;;18.23;nan;101350.53;5937412;24;20416;-90
2022/11/16 22:31:31;;;;;;;18.13;2.33;;;;;;;18.32;nan;101370.44;6036637;23;20481;-90
2022/11/16 22:34:02;;;;;;;8.53;2.73;;;;;;;18.30;nan;101362.38;6026795;23;20426;-92
2022/11/16 22:36:30;;;;;;;17.53;3.60;;;;;;;18.33;nan;101358.28;6026874;23;20411;-92
2022/11/16 22:38:59;;;;;;;15.97;2.50;;;;;;;18.35;nan;101356.16;6049814;23;20446;-91
2022/11/16 22:41:27;;;;;;;12.13;2.70;;;;;;;18.30;nan;101348.53;6049810;23;20402;-92
2022/11/16 22:44:10;;;;;;;14.17;2.27;;;;;;;18.33;nan;101348.06;6027081;23;21068;-92
2022/11/16 22:46:38;;;;;;;7.73;2.27;;;;;;;18.32;nan;101343.63;6073601;23;20418;-92
2022/11/16 22:49:06;;;;;;;7.20;2.23;;;;;;;18.33;nan;101353.59;6026841;23;20526;-91
2022/11/16 22:51:35;;;;;;;8.10;2.23;;;;;;;18.32;nan;101351.91;6026112;23;20718;-91
2022/11/16 22:54:06;;;;;;;9.90;2.60;;;;;;;18.33;nan;101350.84;6026355;23;20426;-92
2022/11/16 22:56:36;;;;;;;10.83;3.37;;;;;;;18.31;nan;101350.22;6027008;23;20395;-92
2022/11/16 22:59:13;;;;;;;8.57;2.73;;;;;;;18.35;nan;101350.59;6073939;23;20458;-91
2022/11/16 23:01:41;;;;;;;16.23;3.10;;;;;;;18.33;nan;101345.31;6027128;23;20535;-91
2022/11/16 23:04:12;;;;;;;13.80;2.73;;;;;;;18.28;nan;101339.59;6027744;23;20418;-92
2022/11/16 23:06:40;;;;;;;14.67;2.47;;;;;;;18.40;nan;101354.38;6027542;23;20387;-91
2022/11/16 23:09:09;;;;;;;14.43;3.27;;;;;;;18.36;nan;101342.09;6038255;23;20415;-91
2022/11/16 23:17:12;;;;;;;15.00;2.77;;;;;;;18.38;nan;101333.56;6056315;23;20419;-91
2022/11/16 23:28:14;;;;;;;11.50;1.93;;;;;;;18.32;nan;101323.38;6057040;23;20425;-92
2022/11/16 23:30:44;;;;;;;16.43;2.17;;;;;;;18.33;nan;101325.09;6026506;23;20518;-91
2022/11/16 23:33:14;;;;;;;12.73;2.57;;;;;;;18.32;nan;101323.38;6025732;23;20486;-92
2022/11/16 23:35:41;;;;;;;13.40;2.60;;;;;;;18.27;nan;101330.50;6026221;23;20502;-92
2022/11/16 23:38:09;;;;;;;15.13;2.63;;;;;;;18.29;nan;101327.47;6035657;23;20441;-91
2022/11/16 23:40:39;;;;;;;9.43;2.70;;;;;;;18.29;nan;101324.69;6052329;23;20446;-92
2022/11/16 23:45:54;;;;;;;14.77;2.70;;;;;;;18.28;nan;101331.31;6106231;23;20500;-92
2022/11/16 23:48:22;;;;;;;20.23;3.70;;;;;;;18.25;nan;101324.34;6054960;23;20916;-92
2022/11/16 23:50:51;;;;;;;25.97;4.00;;;;;;;18.26;nan;101336.25;6078566;23;20395;-92
2022/11/16 23:53:20;;;;;;;21.43;3.83;;;;;;;18.26;nan;101341.78;6055383;23;20603;-92
2022/11/16 23:55:47;;;;;;;14.10;3.53;;;;;;;18.25;nan;101340.09;6078300;23;20488;-92
2022/11/16 23:58:16;;;;;;;13.40;2.97;;;;;;;18.22;nan;101329.47;6054821;23;20466;-91
